LOWSLIPX

Guest
Details From LOWS - Salzburg Maxglan
To LIPX - VILLAFRANCA
Flight Number -
Tags generated
Created
Modified
Stats Distance 169 nm / 313 km
Max Altitude 20,900 ft / 6,370 m
Waypoints 3
Social Downloads 1
Likes 0
Share VATSIM

Download

Looking for another format? Having issues loading an existing format? Contact us
Advertisement - Login to hide

Notes

Basic altitude profile: - Ascent Rate: 2500ft/min - Ascent Speed: 250kts - Cruise Altitude: 35000ft - Cruise Speed: 420kts - Descent Rate: 1500ft/min - Descent Speed: 250kts Options: - Use NATs: yes - Use PACOTS: yes - Use low airways: no - Use high airways: yes

Route

LOWS DETSA LIPX

ID Type Via Altitude Latitude Longitude Leg Dist Tot Dist Heading (true) Name
O LOWS APT - 0 ft / 0 m 47.79333˚ 13.00433˚ - 0 nm - Salzburg Maxglan
DETSA FIX - 20,900 ft / 6,370 m 46.80250˚ 12.28111˚ 66 nm 66 nm 207° / 206° -
O LIPX APT - 0 ft / 0 m 45.39694˚ 10.89042˚ 102 nm 168 nm 215° / 214° VILLAFRANCA

Altitude Profile

Advertisement - Login to hide

Weather


0- 5 10 15 20 25 30 35+ Temperature / ° C

Clouds and Precipitation
Forecast for 2017-12-12 18:00 UTC. Updated an hour ago

Ground ~20,000 ft ~40,000 ft Winds

LOWS

Details ICAO LOWS (SZG)
Name Salzburg Maxglan
Region Austria
Timezone Europe/Vienna (UTC+1.0)
Stats Elevation 1,411 ft / 430 m (AMSL)
Location 47.793333° 13.004333°
Runways 1
Magnetic Variation 3.427° E

METAR

LOWS 121550Z 33009KT 9999 FEW010 SCT040 BKN075 03/M01 Q1014 NOSIG

Decode

TAF

TAF LOWS 121115Z 1212/1312 32008KT 9999 SCT040 BKN060 TX03/1212Z TNM02/1306Z TEMPO 1212/1215 -RASN BKN035 TEMPO 1215/1224 4000 -SHSN SCT012 BKN025 BECMG 1218/1220 16005KT BECMG 1304/1306 FEW050 SCT120

Decode

Departure Runways

ID Width Length Bearing (true) Bearing (mag) Surface Threshold Offset Overrun Length
16 148 ft / 45 m 9,024 ft / 2,751 m 157.08° 153.65° Concrete 656 ft / 200 m 0 ft / 0 m
34 148 ft / 45 m 9,024 ft / 2,751 m 337.09° 333.66° Concrete 787 ft / 240 m 0 ft / 0 m

LIPX

Details ICAO LIPX (VRN)
Name VILLAFRANCA
Region Italy
Timezone Europe/Rome (UTC+1.0)
Stats Elevation 239 ft / 73 m (AMSL)
Location 45.396942° 10.890418°
Runways 1
Magnetic Variation 2.860° E

METAR

LIPX 121550Z 27003KT 210V310 5000 BR SCT050 05/04 Q1011

Decode

TAF

Not found

Destination Runways

ID Width Length Bearing (true) Bearing (mag) Surface Threshold Offset Overrun Length
04 148 ft / 45 m 10,072 ft / 3,070 m 45.79° 42.93° Asphalt 189 ft / 58 m 815 ft / 248 m
22 148 ft / 45 m 10,072 ft / 3,070 m 225.81° 222.95° Asphalt 1,345 ft / 410 m 189 ft / 58 m

Approach Navaids

Runway Type Ident Frequency Range Bearing (true) Bearing (mag) Slope Elevation
04 Localiser IVF 110.10 MHz 18 nm / 33 km 45.76° 42.90° - 248 ft / 76 m (AMSL)
04 Glidescope IVF 110.10 MHz 10 nm / 19 km 45.80° 42.94° 3.00° 272 ft / 83 m (AMSL)
04 DME IVF 110.10 MHz 18 nm / 33 km - - - 248 ft / 76 m (AMSL)

Popular Alternatives